createdAt,value
2022-11-17T00:00:33.460Z,3.65
2022-11-17T00:03:00.213Z,3.05
2022-11-17T00:05:27.050Z,3.67
2022-11-17T00:07:53.842Z,3.50
2022-11-17T00:10:20.715Z,3.03
2022-11-17T00:13:05.835Z,5.53
2022-11-17T00:15:33.002Z,3.67
2022-11-17T00:18:18.155Z,2.90
2022-11-17T00:21:03.568Z,3.00
2022-11-17T00:23:47.168Z,3.67
2022-11-17T00:26:28.683Z,2.35
2022-11-17T00:29:00.455Z,3.17
2022-11-17T00:31:48.044Z,1.93
2022-11-17T00:34:20.324Z,4.55
2022-11-17T00:36:50.023Z,2.67
2022-11-17T00:39:18.638Z,5.75
2022-11-17T00:41:45.496Z,2.75
2022-11-17T00:44:13.087Z,3.03
2022-11-17T00:46:41.110Z,2.33
2022-11-17T00:49:09.486Z,2.28
2022-11-17T00:51:37.065Z,3.13
2022-11-17T00:54:05.419Z,2.97
2022-11-17T00:56:32.443Z,2.47
2022-11-17T00:58:59.831Z,3.10
2022-11-17T01:01:27.316Z,2.67
2022-11-17T01:04:02.996Z,4.03
2022-11-17T01:06:44.799Z,3.38
2022-11-17T01:09:19.576Z,3.08
2022-11-17T01:11:47.743Z,4.32
2022-11-17T01:14:26.487Z,3.30
2022-11-17T01:16:54.449Z,4.40
2022-11-17T01:19:22.734Z,3.08
2022-11-17T01:21:49.648Z,3.38
2022-11-17T01:24:17.420Z,3.88
2022-11-17T01:26:45.635Z,3.90
2022-11-17T01:29:14.503Z,6.38
2022-11-17T01:31:45.630Z,4.95
2022-11-17T01:34:13.063Z,4.53
2022-11-17T01:37:00.208Z,4.20
2022-11-17T01:39:28.462Z,3.72
2022-11-17T01:41:56.239Z,3.92
2022-11-17T01:44:41.747Z,5.18
2022-11-17T01:47:34.670Z,4.22
2022-11-17T01:52:34.665Z,4.50
2022-11-17T01:55:02.738Z,4.70
2022-11-17T01:57:52.861Z,5.22
2022-11-17T02:00:19.805Z,7.70
2022-11-17T02:02:47.917Z,4.75
2022-11-17T02:05:23.637Z,5.03
2022-11-17T02:07:53.522Z,4.82
2022-11-17T02:10:20.605Z,4.68
2022-11-17T02:12:48.683Z,6.65
2022-11-17T02:15:15.507Z,5.00
2022-11-17T02:17:43.317Z,6.00
2022-11-17T02:20:14.531Z,6.07
2022-11-17T02:22:56.800Z,7.10
2022-11-17T02:25:52.309Z,5.65
2022-11-17T02:28:26.389Z,5.85
2022-11-17T02:31:05.154Z,5.68
2022-11-17T02:33:43.012Z,6.47
2022-11-17T02:36:39.733Z,6.70
2022-11-17T02:39:19.051Z,6.72
2022-11-17T02:42:14.051Z,5.90
2022-11-17T02:44:52.836Z,7.28
2022-11-17T02:47:27.569Z,7.05
2022-11-17T02:50:00.197Z,8.70
2022-11-17T02:55:03.090Z,8.38
2022-11-17T02:57:30.941Z,6.97
2022-11-17T03:00:01.805Z,8.02
2022-11-17T03:02:46.119Z,7.20
2022-11-17T03:05:23.128Z,8.30
2022-11-17T03:08:01.923Z,8.13
2022-11-17T03:10:47.728Z,9.00
2022-11-17T03:13:18.970Z,8.95
2022-11-17T03:16:07.419Z,11.90
2022-11-17T03:18:43.938Z,7.90
2022-11-17T03:21:33.381Z,12.57
2022-11-17T03:24:06.807Z,9.60
2022-11-17T03:26:41.096Z,9.68
2022-11-17T03:29:13.594Z,10.40
2022-11-17T03:34:22.101Z,9.60
2022-11-17T03:36:53.467Z,8.52
2022-11-17T03:39:29.789Z,8.65
2022-11-17T03:42:02.011Z,8.25
2022-11-17T03:44:32.781Z,8.70
2022-11-17T03:47:02.033Z,9.57
2022-11-17T03:50:05.731Z,8.75
2022-11-17T03:52:34.443Z,10.68
2022-11-17T03:55:02.301Z,8.85
2022-11-17T03:57:52.267Z,11.88
2022-11-17T04:00:19.894Z,8.82
2022-11-17T04:02:55.520Z,9.63
2022-11-17T04:05:22.475Z,9.57
2022-11-17T04:07:49.540Z,9.73
2022-11-17T04:10:20.168Z,10.07
2022-11-17T04:13:08.883Z,9.30
2022-11-17T04:15:54.372Z,12.20
2022-11-17T04:18:22.611Z,11.50
2022-11-17T04:20:54.831Z,9.55
2022-11-17T04:23:21.972Z,9.25
2022-11-17T04:26:12.764Z,11.77
2022-11-17T04:28:45.691Z,11.82
2022-11-17T04:31:23.259Z,10.68
2022-11-17T04:33:53.299Z,10.75
2022-11-17T04:36:25.878Z,10.85
2022-11-17T04:41:41.920Z,12.65
2022-11-17T04:44:10.797Z,10.77
2022-11-17T04:46:39.102Z,10.57
2022-11-17T04:49:07.096Z,10.27
2022-11-17T04:51:34.902Z,11.75
2022-11-17T04:54:02.645Z,12.52
2022-11-17T04:56:29.839Z,11.85
2022-11-17T04:58:56.963Z,16.42
2022-11-17T05:01:25.616Z,13.90
2022-11-17T05:03:57.670Z,13.50
2022-11-17T05:06:32.118Z,13.55
2022-11-17T05:09:00.360Z,16.77
2022-11-17T05:11:47.729Z,14.38
2022-11-17T05:14:17.095Z,15.55
2022-11-17T05:17:08.645Z,14.93
2022-11-17T05:19:46.210Z,16.95
2022-11-17T05:22:34.874Z,17.63
2022-11-17T05:25:02.138Z,15.80
2022-11-17T05:27:28.985Z,17.55
2022-11-17T05:29:55.936Z,19.50
2022-11-17T05:32:22.756Z,15.85
2022-11-17T05:34:49.626Z,16.05
2022-11-17T05:37:16.401Z,16.08
2022-11-17T05:39:43.214Z,16.08
2022-11-17T05:42:10.018Z,15.40
2022-11-17T05:44:36.851Z,17.45
2022-11-17T05:47:03.591Z,16.08
2022-11-17T05:49:30.376Z,17.83
2022-11-17T05:51:57.193Z,18.13
2022-11-17T05:54:23.960Z,17.48
2022-11-17T05:57:00.720Z,17.38
2022-11-17T05:59:42.489Z,19.42
2022-11-17T06:02:19.997Z,16.17
2022-11-17T06:04:49.453Z,17.77
2022-11-17T06:07:21.486Z,18.92
2022-11-17T06:09:48.336Z,22.48
2022-11-17T06:12:15.572Z,19.75
2022-11-17T06:14:42.615Z,17.63
2022-11-17T06:17:30.552Z,17.65
2022-11-17T06:20:05.663Z,19.38
2022-11-17T06:22:33.562Z,18.65
2022-11-17T06:25:02.335Z,17.42
2022-11-17T06:27:31.938Z,19.95
2022-11-17T06:30:01.733Z,25.83
2022-11-17T06:32:28.768Z,21.17
2022-11-17T06:34:56.629Z,18.33
2022-11-17T06:37:24.624Z,20.00
2022-11-17T06:39:51.378Z,18.98
2022-11-17T06:42:18.200Z,18.73
2022-11-17T06:44:45.035Z,20.00
2022-11-17T06:47:11.776Z,19.70
2022-11-17T06:49:38.532Z,18.60
2022-11-17T06:52:05.288Z,20.33
2022-11-17T06:54:32.044Z,22.20
2022-11-17T06:56:58.786Z,22.58
2022-11-17T06:59:25.660Z,23.20
2022-11-17T07:01:52.484Z,20.83
2022-11-17T07:04:19.270Z,22.00
2022-11-17T07:06:46.056Z,19.63
2022-11-17T07:09:13.929Z,21.83
2022-11-17T07:11:40.617Z,24.65
2022-11-17T07:14:07.475Z,25.33
2022-11-17T07:16:34.256Z,26.63
2022-11-17T07:19:03.474Z,23.52
2022-11-17T07:21:30.639Z,22.77
2022-11-17T07:23:57.450Z,23.63
2022-11-17T07:26:24.243Z,22.80
2022-11-17T07:28:51.038Z,23.23
2022-11-17T07:31:17.855Z,23.83
2022-11-17T07:33:44.634Z,27.27
2022-11-17T07:36:14.560Z,24.42
2022-11-17T07:38:41.465Z,23.25
2022-11-17T07:41:09.925Z,25.15
2022-11-17T07:43:37.247Z,24.67
2022-11-17T07:46:10.388Z,24.67
2022-11-17T07:48:37.929Z,25.58
2022-11-17T07:51:06.378Z,25.70
2022-11-17T07:53:35.115Z,23.33
2022-11-17T07:56:09.965Z,19.45
2022-11-17T07:58:37.619Z,23.23
2022-11-17T08:01:09.937Z,23.65
2022-11-17T08:03:36.913Z,21.02
2022-11-17T08:06:05.391Z,24.65
2022-11-17T08:08:32.587Z,25.08
2022-11-17T08:11:04.627Z,21.70
2022-11-17T08:13:31.642Z,21.75
2022-11-17T08:16:01.560Z,24.02
2022-11-17T08:18:29.958Z,20.02
2022-11-17T08:21:11.664Z,21.05
2022-11-17T08:23:38.727Z,24.00
2022-11-17T08:26:10.664Z,21.13
2022-11-17T08:28:37.964Z,15.25
2022-11-17T08:31:08.136Z,20.75
2022-11-17T08:33:35.165Z,23.17
2022-11-17T08:36:07.733Z,19.67
2022-11-17T08:41:08.675Z,20.17
2022-11-17T08:43:36.711Z,19.52
2022-11-17T08:46:05.632Z,23.48
2022-11-17T08:48:35.116Z,21.83
2022-11-17T08:51:09.823Z,22.92
2022-11-17T08:53:38.713Z,20.83
2022-11-17T08:56:15.550Z,21.77
2022-11-17T08:58:46.788Z,21.25
2022-11-17T09:01:17.907Z,20.65
2022-11-17T09:03:47.682Z,21.07
2022-11-17T09:06:22.879Z,22.35
2022-11-17T09:08:56.574Z,19.20
2022-11-17T09:11:23.860Z,16.88
2022-11-17T09:13:51.423Z,18.60
2022-11-17T09:16:19.225Z,22.77
2022-11-17T09:18:46.825Z,19.52
2022-11-17T09:21:21.202Z,17.98
2022-11-17T09:23:52.321Z,19.38
2022-11-17T09:26:21.217Z,18.05
2022-11-17T09:28:49.201Z,18.50
2022-11-17T09:31:22.754Z,19.33
2022-11-17T09:33:51.013Z,16.98
2022-11-17T09:36:21.703Z,19.40
2022-11-17T09:38:48.698Z,16.15
2022-11-17T09:41:28.577Z,18.63
2022-11-17T09:44:24.244Z,15.50
2022-11-17T09:47:20.736Z,14.30
2022-11-17T09:50:27.230Z,16.25
2022-11-17T09:53:03.869Z,13.23
2022-11-17T09:56:05.454Z,14.32
2022-11-17T09:58:44.897Z,16.00
2022-11-17T10:04:04.637Z,12.43
2022-11-17T10:06:36.134Z,13.68
2022-11-17T10:09:18.710Z,12.32
2022-11-17T10:11:51.025Z,13.52
2022-11-17T10:14:26.756Z,13.13
2022-11-17T10:17:01.600Z,16.63
2022-11-17T10:19:36.763Z,12.70
2022-11-17T10:22:23.257Z,14.25
2022-11-17T10:24:56.147Z,12.40
2022-11-17T10:27:35.939Z,11.98
2022-11-17T10:30:27.208Z,14.98
2022-11-17T10:32:57.467Z,12.00
2022-11-17T10:35:30.937Z,13.65
2022-11-17T10:38:00.277Z,11.25
2022-11-17T10:40:30.752Z,11.65
2022-11-17T10:43:23.668Z,11.93
2022-11-17T10:49:05.149Z,10.23
2022-11-17T10:51:36.877Z,13.52
2022-11-17T10:54:23.113Z,13.27
2022-11-17T10:57:09.560Z,11.57
2022-11-17T10:59:56.195Z,12.15
2022-11-17T11:02:35.596Z,11.52
2022-11-17T11:05:22.343Z,13.50
2022-11-17T11:07:49.754Z,13.43
2022-11-17T11:10:34.332Z,12.20
2022-11-17T11:13:04.160Z,12.43
2022-11-17T11:15:36.272Z,10.55
2022-11-17T11:18:18.576Z,10.90
2022-11-17T11:21:28.793Z,14.93
2022-11-17T11:24:14.170Z,12.23
2022-11-17T11:26:51.154Z,12.82
2022-11-17T11:29:25.320Z,14.75
2022-11-17T11:32:33.908Z,11.68
2022-11-17T11:35:32.379Z,9.52
2022-11-17T11:38:17.760Z,9.23
2022-11-17T11:41:05.370Z,10.35
2022-11-17T11:43:38.502Z,11.07
2022-11-17T11:46:18.615Z,14.73
2022-11-17T11:48:47.445Z,9.02
2022-11-17T11:51:34.617Z,8.27
2022-11-17T11:54:09.985Z,9.15
2022-11-17T11:56:40.724Z,8.88
2022-11-17T11:59:15.873Z,8.70
2022-11-17T12:01:48.998Z,9.10
2022-11-17T12:04:33.782Z,10.88
2022-11-17T12:07:21.744Z,9.63
2022-11-17T12:09:52.682Z,8.48
2022-11-17T12:12:26.857Z,8.77
2022-11-17T12:15:10.375Z,9.27
2022-11-17T12:17:56.842Z,9.60
2022-11-17T12:21:03.184Z,11.68
2022-11-17T12:23:37.136Z,9.65
2022-11-17T12:26:04.534Z,8.23
2022-11-17T12:28:40.175Z,8.35
2022-11-17T12:31:32.829Z,8.40
2022-11-17T12:33:59.577Z,9.32
2022-11-17T12:36:34.054Z,7.72
2022-11-17T12:39:08.791Z,8.80
2022-11-17T12:41:53.429Z,8.10
2022-11-17T12:44:48.517Z,7.38
2022-11-17T12:47:23.622Z,9.55
2022-11-17T12:50:18.699Z,7.85
2022-11-17T12:52:54.357Z,8.15
2022-11-17T12:55:55.019Z,8.70
2022-11-17T12:58:42.354Z,8.38
2022-11-17T13:01:40.553Z,7.70
2022-11-17T13:04:15.811Z,8.35
2022-11-17T13:06:59.485Z,6.93
2022-11-17T13:09:28.241Z,8.57
2022-11-17T13:12:07.135Z,8.52
2022-11-17T13:14:36.233Z,8.52
2022-11-17T13:17:03.732Z,9.60
2022-11-17T13:19:32.872Z,8.60
2022-11-17T13:22:13.748Z,11.32
2022-11-17T13:24:42.791Z,7.95
2022-11-17T13:27:26.192Z,9.15
2022-11-17T13:30:25.650Z,9.85
2022-11-17T13:32:52.594Z,6.70
2022-11-17T13:35:31.652Z,8.43
2022-11-17T13:38:20.044Z,8.05
2022-11-17T13:40:49.347Z,8.93
2022-11-17T13:43:22.137Z,8.15
2022-11-17T13:45:54.618Z,8.93
2022-11-17T13:48:35.784Z,7.85
2022-11-17T13:51:22.429Z,8.68
2022-11-17T13:54:03.051Z,7.82
2022-11-17T13:56:40.347Z,8.60
2022-11-17T13:59:22.499Z,8.68
2022-11-17T14:01:49.382Z,8.65
2022-11-17T14:04:24.311Z,7.10
2022-11-17T14:06:59.964Z,6.28
2022-11-17T14:09:30.679Z,8.23
2022-11-17T14:12:01.737Z,6.88
2022-11-17T14:14:32.609Z,7.97
2022-11-17T14:17:27.971Z,6.97
2022-11-17T14:19:54.805Z,7.38
2022-11-17T14:22:30.958Z,8.55
2022-11-17T14:24:58.648Z,7.38
2022-11-17T14:27:37.365Z,8.23
2022-11-17T14:30:05.304Z,8.88
2022-11-17T14:32:32.419Z,7.38
2022-11-17T14:34:59.204Z,8.15
2022-11-17T14:37:27.167Z,6.45
2022-11-17T14:39:53.959Z,7.07
2022-11-17T14:42:20.728Z,6.43
2022-11-17T14:44:47.475Z,6.32
2022-11-17T14:47:14.266Z,7.30
2022-11-17T14:49:40.993Z,6.20
2022-11-17T14:52:09.930Z,7.63
2022-11-17T14:54:36.705Z,8.23
2022-11-17T14:57:03.547Z,8.23
2022-11-17T14:59:30.301Z,7.15
2022-11-17T15:01:57.020Z,6.80
2022-11-17T15:07:10.646Z,6.65
2022-11-17T15:09:37.426Z,5.40
2022-11-17T15:12:04.393Z,8.35
2022-11-17T15:14:31.160Z,5.80
2022-11-17T15:16:57.996Z,6.75
2022-11-17T15:19:24.856Z,8.85
2022-11-17T15:21:51.682Z,6.72
2022-11-17T15:24:18.812Z,6.22
2022-11-17T15:26:45.627Z,5.95
2022-11-17T15:29:17.133Z,6.00
2022-11-17T15:31:44.508Z,9.50
2022-11-17T15:34:14.425Z,6.00
2022-11-17T15:36:45.443Z,7.95
2022-11-17T15:39:12.313Z,6.47
2022-11-17T15:41:39.206Z,5.90
2022-11-17T15:44:06.250Z,6.28
2022-11-17T15:46:32.972Z,6.35
2022-11-17T15:48:59.755Z,6.32
2022-11-17T15:51:27.895Z,8.85
2022-11-17T15:53:58.764Z,6.38
2022-11-17T15:56:30.995Z,6.60
2022-11-17T15:59:01.649Z,7.00
2022-11-17T16:01:33.347Z,5.93
2022-11-17T16:04:03.063Z,4.23
2022-11-17T16:06:30.868Z,6.65
2022-11-17T16:08:57.974Z,7.40
2022-11-17T16:11:26.966Z,7.80
2022-11-17T16:13:55.318Z,9.90
2022-11-17T16:16:22.741Z,6.43
2022-11-17T16:18:49.539Z,7.43
2022-11-17T16:21:20.761Z,5.47
2022-11-17T16:23:50.388Z,6.90
2022-11-17T16:26:19.437Z,6.82
2022-11-17T16:28:49.530Z,5.57
2022-11-17T16:31:24.678Z,6.03
2022-11-17T16:34:00.166Z,5.32
2022-11-17T16:36:35.997Z,5.88
2022-11-17T16:39:04.996Z,6.43
2022-11-17T16:41:37.233Z,9.52
2022-11-17T16:44:08.987Z,6.55
2022-11-17T16:46:35.969Z,7.60
2022-11-17T16:49:07.882Z,7.00
2022-11-17T16:51:35.083Z,7.88
2022-11-17T16:54:04.957Z,7.63
2022-11-17T16:56:33.298Z,7.10
2022-11-17T16:59:00.372Z,6.80
2022-11-17T17:01:33.072Z,7.13
2022-11-17T17:04:05.322Z,6.88
2022-11-17T17:06:33.416Z,7.68
2022-11-17T17:09:03.201Z,7.45
2022-11-17T17:11:32.016Z,7.00
2022-11-17T17:14:00.372Z,7.00
2022-11-17T17:16:27.424Z,8.93
2022-11-17T17:19:01.934Z,6.30
2022-11-17T17:21:29.219Z,6.85
2022-11-17T17:23:56.729Z,5.88
2022-11-17T17:26:25.725Z,6.43
2022-11-17T17:28:55.231Z,6.70
2022-11-17T17:31:23.804Z,7.85
2022-11-17T17:33:51.771Z,7.47
2022-11-17T17:36:21.527Z,7.53
2022-11-17T17:38:54.956Z,7.35
2022-11-17T17:41:25.051Z,6.05
2022-11-17T17:44:17.643Z,8.43
2022-11-17T17:46:45.568Z,6.75
2022-11-17T17:49:12.790Z,7.63
2022-11-17T17:51:43.126Z,6.57
2022-11-17T17:54:18.844Z,7.85
2022-11-17T17:56:46.227Z,7.90
2022-11-17T18:06:58.128Z,6.32
2022-11-17T18:09:25.002Z,7.00
2022-11-17T18:11:51.839Z,6.15
2022-11-17T18:14:23.832Z,8.35
2022-11-17T18:16:51.643Z,7.18
2022-11-17T18:19:19.020Z,7.22
2022-11-17T18:21:46.101Z,6.63
2022-11-17T18:24:13.239Z,6.18
2022-11-17T18:26:41.265Z,7.18
2022-11-17T18:29:12.823Z,7.70
2022-11-17T18:31:39.866Z,7.03
2022-11-17T18:34:20.613Z,6.03
2022-11-17T18:36:48.801Z,4.93
2022-11-17T18:39:18.817Z,6.07
2022-11-17T18:41:46.007Z,6.05
2022-11-17T18:44:18.470Z,5.80
2022-11-17T18:46:46.093Z,5.90
2022-11-17T18:49:13.159Z,6.55
2022-11-17T18:51:40.011Z,5.00
2022-11-17T18:54:07.884Z,5.60
2022-11-17T18:56:36.638Z,5.15
2022-11-17T18:59:06.458Z,5.75
2022-11-17T19:01:33.456Z,8.95
2022-11-17T19:04:01.170Z,5.80
2022-11-17T19:06:28.313Z,5.38
2022-11-17T19:08:55.401Z,5.55
2022-11-17T19:11:23.636Z,6.93
2022-11-17T19:13:50.915Z,5.20
2022-11-17T19:16:25.781Z,7.13
2022-11-17T19:18:54.486Z,7.28
2022-11-17T19:21:25.762Z,5.53
2022-11-17T19:23:54.799Z,9.05
2022-11-17T19:26:27.108Z,6.13
2022-11-17T19:29:01.747Z,4.72
2022-11-17T19:31:29.142Z,4.82
2022-11-17T19:33:57.248Z,6.05
2022-11-17T19:36:26.838Z,4.97
2022-11-17T19:38:56.014Z,5.35
2022-11-17T19:41:31.915Z,5.18
2022-11-17T19:44:01.143Z,4.93
2022-11-17T19:46:28.957Z,6.28
2022-11-17T19:48:57.528Z,4.68
2022-11-17T19:51:30.311Z,5.20
2022-11-17T19:54:00.803Z,4.40
2022-11-17T19:56:28.061Z,5.20
2022-11-17T19:58:55.574Z,4.50
2022-11-17T20:01:25.343Z,5.13
2022-11-17T20:03:52.828Z,4.90
2022-11-17T20:06:22.175Z,4.90
2022-11-17T20:08:49.494Z,4.97
2022-11-17T20:11:18.927Z,5.60
2022-11-17T20:13:46.380Z,5.53
2022-11-17T20:16:24.929Z,5.70
2022-11-17T20:18:56.916Z,6.35
2022-11-17T20:21:25.378Z,7.57
2022-11-17T20:23:52.343Z,7.28
2022-11-17T20:26:24.740Z,6.13
2022-11-17T20:28:52.382Z,6.35
2022-11-17T20:31:20.958Z,7.38
2022-11-17T20:33:49.031Z,6.60
2022-11-17T20:36:19.384Z,7.70
2022-11-17T20:38:51.591Z,6.53
2022-11-17T20:41:20.838Z,6.45
2022-11-17T20:43:49.201Z,7.28
2022-11-17T20:46:16.577Z,7.10
2022-11-17T20:48:44.071Z,8.10
2022-11-17T20:51:13.647Z,8.73
2022-11-17T20:53:41.093Z,9.52
2022-11-17T20:56:09.811Z,9.15
2022-11-17T20:58:37.280Z,10.10
2022-11-17T21:01:19.163Z,7.68
2022-11-17T21:03:46.533Z,7.80
2022-11-17T21:06:14.250Z,7.57
2022-11-17T21:08:43.215Z,7.60
2022-11-17T21:11:33.681Z,7.70
2022-11-17T21:14:00.991Z,9.00
2022-11-17T21:16:28.208Z,8.65
2022-11-17T21:18:55.173Z,7.93
2022-11-17T21:21:23.210Z,7.40
2022-11-17T21:23:56.463Z,10.95
2022-11-17T21:26:24.038Z,7.10
2022-11-17T21:28:51.526Z,7.63
2022-11-17T21:31:20.798Z,10.00
2022-11-17T21:33:47.779Z,7.57
2022-11-17T21:36:17.547Z,6.97
2022-11-17T21:38:46.793Z,9.25
2022-11-17T21:41:25.467Z,9.32
2022-11-17T21:43:54.224Z,8.90
2022-11-17T21:46:26.515Z,8.70
2022-11-17T21:48:55.072Z,8.90
2022-11-17T21:51:33.263Z,6.70
2022-11-17T21:54:02.425Z,11.02
2022-11-17T21:56:29.425Z,10.05
2022-11-17T21:58:57.272Z,8.38
2022-11-17T22:01:24.460Z,10.43
2022-11-17T22:03:51.342Z,9.10
2022-11-17T22:06:20.579Z,8.88
2022-11-17T22:08:48.297Z,12.85
2022-11-17T22:11:35.138Z,9.43
2022-11-17T22:14:19.494Z,9.50
2022-11-17T22:16:47.434Z,8.73
2022-11-17T22:19:16.210Z,10.48
2022-11-17T22:21:43.970Z,10.88
2022-11-17T22:24:12.216Z,10.63
2022-11-17T22:26:41.341Z,9.02
2022-11-17T22:29:17.894Z,10.52
2022-11-17T22:31:46.961Z,10.57
2022-11-17T22:34:14.218Z,10.02
2022-11-17T22:36:41.629Z,11.13
2022-11-17T22:39:09.379Z,9.98
2022-11-17T22:41:36.280Z,11.30
2022-11-17T22:44:03.415Z,10.32
2022-11-17T22:46:30.552Z,11.20
2022-11-17T22:48:57.600Z,11.80
2022-11-17T22:51:43.518Z,12.45
2022-11-17T22:54:10.631Z,10.73
2022-11-17T22:56:37.482Z,12.93
2022-11-17T22:59:04.794Z,12.35
2022-11-17T23:01:31.612Z,10.40
2022-11-17T23:03:58.940Z,8.90
2022-11-17T23:06:27.334Z,10.45
2022-11-17T23:08:55.594Z,11.15
2022-11-17T23:11:36.683Z,11.95
2022-11-17T23:14:05.555Z,9.75
2022-11-17T23:16:33.188Z,10.88
2022-11-17T23:19:00.172Z,10.73
2022-11-17T23:21:27.082Z,11.95
2022-11-17T23:23:54.001Z,12.70
2022-11-17T23:26:21.141Z,9.30
2022-11-17T23:28:48.117Z,9.50
2022-11-17T23:31:16.796Z,11.25
2022-11-17T23:33:46.289Z,8.50
2022-11-17T23:36:19.379Z,8.45
2022-11-17T23:38:47.303Z,10.05
2022-11-17T23:41:16.466Z,14.43
2022-11-17T23:43:43.471Z,12.95
2022-11-17T23:46:15.778Z,8.45
2022-11-17T23:48:43.652Z,8.20
2022-11-17T23:51:12.811Z,8.95
2022-11-17T23:53:39.727Z,10.10
2022-11-17T23:56:07.387Z,9.63
2022-11-17T23:58:34.421Z,9.27
